Welcome to Northern Hawkes Bay. New Zealand.
PWS Header
      nz Flag



Hit Counter


W3C Valid W3C Valid logo


    Wairoa

Select any of the Stations below to visit their websites.










Historic Data from Weather Underground
Select the location of interest below. Wairoa is the default. Please have patience, this Data is slow to load in.
Northern Hawkes Bay Historical Data
Daily Summary for January 8, 2017 Units:  Metric    English   Both
« Previous Day
Next Day »
Daily Weekly Monthly Yearly Custom
  High: Low: Average:
Temperature: 25.6 °C 10.8 °C 17.6 °C
Dew Point: 13.3 °C 5.8 °C 10.4 °C
Humidity: 99% 28% 66%
Wind Speed: 20.9km/h 0.0km/h 5.3km/h
Wind Gust: 28.0km/h - -
Wind- - West
Pressure: 1008.7 hPa 1004.3 hPa -
Precipitation: 0.0 mm    
Historical Graphs
 
 
Tabular Data for January 8, 2017
Time Temperature Dew Point Pressure Wind Wind Speed Wind Gust Humidity Rainfall Rate (Hourly) solar
00:08 15.9 °C 13.2 °C 1007.3 hPa North 3.5 km/h 6.1 km/h 84% 0.0 mm 0 W/m2
00:13 15.8 °C 13.1 °C 1007.3 hPa North 3.5 km/h 8.7 km/h 84% 0.0 mm 0 W/m2
00:18 15.8 °C 13.1 °C 1007.3 hPa North 2.6 km/h 8.7 km/h 84% 0.0 mm 0 W/m2
00:23 15.8 °C 13.1 °C 1007.3 hPa North 5.0 km/h 8.7 km/h 84% 0.0 mm 0 W/m2
00:28 15.8 °C 13.1 °C 1007.3 hPa NNW 2.6 km/h 8.7 km/h 84% 0.0 mm 0 W/m2
00:33 15.8 °C 13.1 °C 1007.3 hPa NNW 2.6 km/h 8.7 km/h 84% 0.0 mm 0 W/m2
00:38 15.8 °C 13.1 °C 1007.3 hPa NNW 1.1 km/h 7.2 km/h 84% 0.0 mm 0 W/m2
00:43 15.8 °C 13.1 °C 1007.3 hPa NW 3.5 km/h 7.2 km/h 84% 0.0 mm 0 W/m2
00:48 15.7 °C 13.0 °C 1007.3 hPa NW 6.1 km/h 8.7 km/h 84% 0.0 mm 0 W/m2
00:53 15.7 °C 13.0 °C 1007.3 hPa NW 5.0 km/h 8.7 km/h 84% 0.0 mm 0 W/m2
00:58 15.5 °C 12.8 °C 1007.3 hPa NW 3.5 km/h 8.7 km/h 84% 0.0 mm 0 W/m2
01:03 15.4 °C 12.7 °C 1007.3 hPa NW 3.5 km/h 7.2 km/h 84% 0.0 mm 0 W/m2
01:08 15.3 °C 12.6 °C 1007.3 hPa NW 2.6 km/h 7.2 km/h 84% 0.0 mm 0 W/m2
01:13 15.2 °C 12.7 °C 1007.3 hPa NW 2.6 km/h 6.1 km/h 85% 0.0 mm 0 W/m2
01:18 15.1 °C 12.6 °C 1007.3 hPa WNW 2.6 km/h 6.1 km/h 85% 0.0 mm 0 W/m2
01:23 15.0 °C 12.5 °C 1007.3 hPa WNW 3.5 km/h 5.0 km/h 85% 0.0 mm 0 W/m2
01:28 15.0 °C 12.5 °C 1007.3 hPa NW 3.5 km/h 6.1 km/h 85% 0.0 mm 0 W/m2
01:33 14.8 °C 12.5 °C 1007.3 hPa NNW 2.6 km/h 6.1 km/h 86% 0.0 mm 0 W/m2
01:38 14.7 °C 12.6 °C 1007.3 hPa North 2.6 km/h 6.1 km/h 87% 0.0 mm 0 W/m2
01:43 14.6 °C 12.4 °C 1007.3 hPa North 2.6 km/h 5.0 km/h 87% 0.0 mm 0 W/m2
01:48 14.5 °C 12.6 °C 1007.3 hPa North 3.5 km/h 7.2 km/h 88% 0.0 mm 0 W/m2
01:53 14.5 °C 12.6 °C 1007.3 hPa NNW 3.5 km/h 7.2 km/h 88% 0.0 mm 0 W/m2
01:58 14.5 °C 12.6 °C 1007.3 hPa NW 3.5 km/h 6.1 km/h 88% 0.0 mm 0 W/m2
02:03 14.5 °C 12.6 °C 1007.3 hPa NW 3.5 km/h 6.1 km/h 88% 0.0 mm 0 W/m2
02:08 14.3 °C 12.2 °C 1007.3 hPa NW 5.0 km/h 8.7 km/h 87% 0.0 mm 0 W/m2
02:13 14.2 °C 12.1 °C 1007.0 hPa NW 1.1 km/h 8.7 km/h 87% 0.0 mm 0 W/m2
02:18 14.1 °C 12.2 °C 1007.0 hPa NW 1.1 km/h 6.1 km/h 88% 0.0 mm 0 W/m2
02:23 13.9 °C 12.1 °C 1007.0 hPa Calm   5.0 km/h 89% 0.0 mm 0 W/m2
02:28 13.8 °C 12.0 °C 1007.0 hPa NW 1.1 km/h 3.5 km/h 89% 0.0 mm 0 W/m2
02:33 13.6 °C 11.8 °C 1006.7 hPa NNW 2.6 km/h 5.0 km/h 89% 0.0 mm 0 W/m2
02:38 13.6 °C 12.0 °C 1006.7 hPa North 2.6 km/h 5.0 km/h 90% 0.0 mm 0 W/m2
02:43 13.5 °C 12.1 °C 1006.7 hPa NNW 2.6 km/h 6.1 km/h 91% 0.0 mm 0 W/m2
02:48 13.4 °C 12.1 °C 1006.7 hPa NNW 5.0 km/h 7.2 km/h 92% 0.0 mm 0 W/m2
02:53 13.4 °C 12.1 °C 1006.7 hPa NNW 3.5 km/h 7.2 km/h 92% 0.0 mm 0 W/m2
02:59 13.3 °C 12.1 °C 1006.7 hPa NNW 5.0 km/h 8.7 km/h 92% 0.0 mm 0 W/m2
03:04 13.1 °C 11.8 °C 1006.7 hPa NNW 2.6 km/h 8.7 km/h 92% 0.0 mm 0 W/m2
03:09 13.0 °C 11.7 °C 1006.3 hPa NW 2.6 km/h 7.2 km/h 92% 0.0 mm 0 W/m2
03:14 12.9 °C 11.8 °C 1006.7 hPa NW 3.5 km/h 6.1 km/h 93% 0.0 mm 0 W/m2
03:19 12.8 °C 11.7 °C 1006.7 hPa NW 2.6 km/h 5.0 km/h 93% 0.0 mm 0 W/m2
03:24 12.7 °C 11.6 °C 1006.3 hPa NNW 2.6 km/h 6.1 km/h 93% 0.0 mm 0 W/m2
03:29 12.6 °C 11.5 °C 1006.7 hPa NNW 2.6 km/h 6.1 km/h 93% 0.0 mm 0 W/m2
03:34 12.5 °C 11.6 °C 1006.3 hPa NNW 2.6 km/h 5.0 km/h 94% 0.0 mm 0 W/m2
03:39 12.5 °C 11.6 °C 1006.3 hPa NNW 3.5 km/h 5.0 km/h 94% 0.0 mm 0 W/m2
03:44 12.4 °C 11.4 °C 1006.7 hPa NNW 1.1 km/h 5.0 km/h 94% 0.0 mm 0 W/m2
03:49 12.3 °C 11.4 °C 1006.7 hPa NW 2.6 km/h 5.0 km/h 94% 0.0 mm 0 W/m2
03:54 12.2 °C 11.3 °C 1006.7 hPa NNW 1.1 km/h 5.0 km/h 94% 0.0 mm 0 W/m2
03:59 12.1 °C 11.2 °C 1006.7 hPa NNW 2.6 km/h 5.0 km/h 94% 0.0 mm 0 W/m2
04:04 12.0 °C 11.1 °C 1006.7 hPa NNW 1.1 km/h 5.0 km/h 94% 0.0 mm 0 W/m2
04:09 11.9 °C 11.1 °C 1006.7 hPa NNW 2.6 km/h 5.0 km/h 95% 0.0 mm 0 W/m2
04:14 11.8 °C 11.2 °C 1006.3 hPa Calm   3.5 km/h 96% 0.0 mm 0 W/m2
04:19 11.7 °C 11.1 °C 1006.7 hPa Calm   3.5 km/h 96% 0.0 mm 0 W/m2
04:24 11.7 °C 11.1 °C 1006.3 hPa NW 2.6 km/h 3.5 km/h 96% 0.0 mm 0 W/m2
04:29 11.7 °C 11.1 °C 1006.3 hPa NW 2.6 km/h 3.5 km/h 96% 0.0 mm 0 W/m2
04:34 11.6 °C 11.0 °C 1006.3 hPa NW 2.6 km/h 3.5 km/h 96% 0.0 mm 0 W/m2
04:39 11.6 °C 11.0 °C 1006.3 hPa NNW 1.1 km/h 3.5 km/h 96% 0.0 mm 0 W/m2
04:44 11.5 °C 10.9 °C 1006.3 hPa NW 1.1 km/h 3.5 km/h 96% 0.0 mm 0 W/m2
04:49 11.5 °C 10.9 °C 1006.3 hPa NW 1.1 km/h 3.5 km/h 96% 0.0 mm 0 W/m2
04:54 11.4 °C 10.8 °C 1006.3 hPa WNW 2.6 km/h 5.0 km/h 96% 0.0 mm 0 W/m2
04:59 11.4 °C 10.9 °C 1006.7 hPa WNW 3.5 km/h 7.2 km/h 97% 0.0 mm 0 W/m2
05:04 11.3 °C 10.8 °C 1006.7 hPa WNW 3.5 km/h 7.2 km/h 97% 0.0 mm 0 W/m2
05:09 11.3 °C 10.8 °C 1006.7 hPa NW 3.5 km/h 6.1 km/h 97% 0.0 mm 0 W/m2
05:14 11.2 °C 10.7 °C 1006.7 hPa NW 3.5 km/h 5.0 km/h 97% 0.0 mm 0 W/m2
05:19 11.1 °C 10.7 °C 1007.0 hPa NNW 1.1 km/h 5.0 km/h 97% 0.0 mm 0 W/m2
05:25 11.1 °C 10.8 °C 1007.0 hPa NNW 2.6 km/h 5.0 km/h 98% 0.0 mm 0 W/m2
05:30 11.2 °C 10.9 °C 1006.7 hPa NNW 2.6 km/h 6.1 km/h 98% 0.0 mm 0 W/m2
05:35 11.2 °C 10.9 °C 1007.0 hPa NNW 2.6 km/h 6.1 km/h 98% 0.0 mm 0 W/m2
05:41 11.2 °C 10.9 °C 1007.0 hPa North 1.1 km/h 5.0 km/h 98% 0.0 mm 0 W/m2
05:46 11.1 °C 10.8 °C 1007.0 hPa Calm   5.0 km/h 98% 0.0 mm 0 W/m2
05:51 11.0 °C 10.7 °C 1007.0 hPa Calm   2.6 km/h 98% 0.0 mm 0 W/m2
05:56 11.0 °C 10.7 °C 1007.0 hPa NNE 1.1 km/h 5.0 km/h 98% 0.0 mm 2 W/m2
06:01 10.9 °C 10.8 °C 1007.0 hPa North 2.6 km/h 5.0 km/h 99% 0.0 mm 4 W/m2
06:06 10.9 °C 10.8 °C 1007.0 hPa NNW 3.5 km/h 6.1 km/h 99% 0.0 mm 8 W/m2
06:11 10.8 °C 10.7 °C 1007.0 hPa NNW 2.6 km/h 7.2 km/h 99% 0.0 mm 13 W/m2
06:16 10.8 °C 10.7 °C 1007.0 hPa NNW 3.5 km/h 7.2 km/h 99% 0.0 mm 17 W/m2
06:21 10.9 °C 10.8 °C 1007.0 hPa NNW 5.0 km/h 7.2 km/h 99% 0.0 mm 20 W/m2
06:26 10.9 °C 10.8 °C 1007.0 hPa NNW 2.6 km/h 7.2 km/h 99% 0.0 mm 23 W/m2
06:31 10.9 °C 10.8 °C 1007.0 hPa NNW 2.6 km/h 6.1 km/h 99% 0.0 mm 27 W/m2
06:36 10.9 °C 10.8 °C 1007.0 hPa NW 2.6 km/h 6.1 km/h 99% 0.0 mm 34 W/m2
06:41 11.0 °C 10.7 °C 1006.7 hPa NNW 2.6 km/h 6.1 km/h 98% 0.0 mm 35 W/m2
06:46 11.1 °C 10.7 °C 1007.0 hPa NNW 5.0 km/h 6.1 km/h 97% 0.0 mm 35 W/m2
06:51 11.1 °C 10.7 °C 1007.0 hPa NNW 5.0 km/h 8.7 km/h 97% 0.0 mm 56 W/m2
06:56 11.5 °C 10.9 °C 1007.0 hPa NNW 3.5 km/h 8.7 km/h 96% 0.0 mm 101 W/m2
07:01 12.1 °C 11.2 °C 1007.0 hPa NNW 3.5 km/h 7.2 km/h 94% 0.0 mm 111 W/m2
07:06 12.6 °C 11.3 °C 1007.0 hPa NNW 3.5 km/h 7.2 km/h 92% 0.0 mm 113 W/m2
07:11 13.0 °C 11.2 °C 1007.0 hPa NNW 5.0 km/h 8.7 km/h 89% 0.0 mm 71 W/m2
07:16 13.1 °C 11.0 °C 1007.0 hPa NNW 5.0 km/h 8.7 km/h 87% 0.0 mm 129 W/m2
07:21 13.5 °C 11.2 °C 1007.0 hPa NNW 6.1 km/h 9.7 km/h 86% 0.0 mm 176 W/m2
07:26 14.0 °C 11.0 °C 1007.0 hPa NNW 3.5 km/h 9.7 km/h 82% 0.0 mm 174 W/m2
07:31 14.4 °C 10.8 °C 1007.0 hPa NNW 5.0 km/h 9.7 km/h 79% 0.0 mm 192 W/m2
07:36 14.9 °C 11.1 °C 1007.3 hPa NW 8.7 km/h 12.2 km/h 78% 0.0 mm 229 W/m2
07:41 14.6 °C 10.6 °C 1007.3 hPa NW 3.5 km/h 13.4 km/h 77% 0.0 mm 202 W/m2
07:46 15.0 °C 10.8 °C 1007.3 hPa NNW 5.0 km/h 13.4 km/h 76% 0.0 mm 180 W/m2
07:51 14.8 °C 10.4 °C 1007.3 hPa North 6.1 km/h 9.7 km/h 75% 0.0 mm 188 W/m2
07:56 14.8 °C 10.8 °C 1007.3 hPa NNW 5.0 km/h 9.7 km/h 77% 0.0 mm 170 W/m2
08:01 14.9 °C 10.7 °C 1007.3 hPa NNW 2.6 km/h 8.7 km/h 76% 0.0 mm 163 W/m2
08:06 14.9 °C 10.7 °C 1007.7 hPa NNW 1.1 km/h 7.2 km/h 76% 0.0 mm 156 W/m2
08:11 15.1 °C 10.5 °C 1007.7 hPa Calm   6.1 km/h 74% 0.0 mm 158 W/m2
08:16 15.3 °C 10.7 °C 1007.7 hPa NNE 1.1 km/h 5.0 km/h 74% 0.0 mm 158 W/m2
08:21 15.4 °C 10.8 °C 1007.7 hPa Calm   6.1 km/h 74% 0.0 mm 159 W/m2
08:26 15.7 °C 10.9 °C 1007.7 hPa North 5.0 km/h 7.2 km/h 73% 0.0 mm 182 W/m2
08:31 15.7 °C 10.7 °C 1008.0 hPa North 2.6 km/h 7.2 km/h 72% 0.0 mm 318 W/m2
08:32 15.8 °C 10.8 °C 1008.0 hPa North 3.5 km/h 7.2 km/h 72% 0.0 mm 334 W/m2
08:37 16.5 °C 10.3 °C 1007.7 hPa NNW 5.0 km/h 8.7 km/h 67% 0.0 mm 378 W/m2
08:42 17.1 °C 10.2 °C 1008.0 hPa North 3.5 km/h 9.7 km/h 64% 0.0 mm 451 W/m2
08:47 17.7 °C 10.6 °C 1008.0 hPa NNW 3.5 km/h 9.7 km/h 63% 0.0 mm 393 W/m2
08:52 17.8 °C 9.7 °C 1008.0 hPa NW 7.2 km/h 9.7 km/h 59% 0.0 mm 481 W/m2
08:57 18.0 °C 9.6 °C 1008.4 hPa NW 5.0 km/h 9.7 km/h 58% 0.0 mm 473 W/m2
09:02 18.3 °C 9.9 °C 1008.4 hPa NW 3.5 km/h 8.7 km/h 58% 0.0 mm 417 W/m2
09:07 18.9 °C 10.2 °C 1008.4 hPa NW 2.6 km/h 8.7 km/h 57% 0.0 mm 480 W/m2
09:13 19.5 °C 9.9 °C 1008.4 hPa NW 1.1 km/h 8.7 km/h 54% 0.0 mm 449 W/m2
09:18 20.2 °C 9.4 °C 1008.4 hPa NW 8.7 km/h 11.1 km/h 50% 0.0 mm 468 W/m2
09:23 19.4 °C 9.0 °C 1008.4 hPa NNW 3.5 km/h 11.1 km/h 51% 0.0 mm 492 W/m2
09:28 19.7 °C 9.3 °C 1008.4 hPa West 3.5 km/h 11.1 km/h 51% 0.0 mm 510 W/m2
09:33 19.4 °C 7.5 °C 1008.4 hPa SSW 6.1 km/h 19.5 km/h 46% 0.0 mm 552 W/m2
09:39 19.1 °C 7.2 °C 1008.4 hPa SW 13.4 km/h 19.5 km/h 46% 0.0 mm 522 W/m2
09:44 18.7 °C 7.8 °C 1008.4 hPa SW 11.1 km/h 23.3 km/h 49% 0.0 mm 430 W/m2
09:49 18.4 °C 7.8 °C 1008.4 hPa SSW 7.2 km/h 23.3 km/h 50% 0.0 mm 388 W/m2
09:54 18.2 °C 7.9 °C 1008.7 hPa SSW 8.7 km/h 17.2 km/h 51% 0.0 mm 543 W/m2
09:59 18.7 °C 8.1 °C 1008.7 hPa SW 6.1 km/h 14.8 km/h 50% 0.0 mm 474 W/m2
10:09 19.2 °C 7.9 °C 1008.4 hPa SW 5.0 km/h 11.1 km/h 48% 0.0 mm 663 W/m2
10:14 19.4 °C 8.1 °C 1008.4 hPa SW 7.2 km/h 15.8 km/h 48% 0.0 mm 829 W/m2
10:19 19.4 °C 7.5 °C 1008.4 hPa WSW 6.1 km/h 21.9 km/h 46% 0.0 mm 726 W/m2
10:29 19.1 °C 7.8 °C 1008.4 hPa SW 5.0 km/h 20.9 km/h 48% 0.0 mm 686 W/m2
10:34 19.4 °C 7.8 °C 1008.4 hPa West 6.1 km/h 15.8 km/h 47% 0.0 mm 690 W/m2
10:39 20.2 °C 7.9 °C 1008.4 hPa NW 11.1 km/h 13.4 km/h 45% 0.0 mm 830 W/m2
10:44 20.3 °C 7.7 °C 1008.0 hPa NW 9.7 km/h 18.3 km/h 44% 0.0 mm 682 W/m2
10:49 20.2 °C 7.6 °C 1008.4 hPa NW 3.5 km/h 18.3 km/h 44% 0.0 mm 834 W/m2
10:54 21.0 °C 7.9 °C 1008.4 hPa WNW 2.6 km/h 17.2 km/h 43% 0.0 mm 901 W/m2
10:59 21.0 °C 7.6 °C 1008.4 hPa SSW 11.1 km/h 20.9 km/h 42% 0.0 mm 936 W/m2
11:04 21.0 °C 8.6 °C 1008.4 hPa SW 14.8 km/h 23.3 km/h 45% 0.0 mm 853 W/m2
11:09 20.1 °C 7.5 °C 1008.4 hPa SW 12.2 km/h 24.5 km/h 44% 0.0 mm 840 W/m2
11:14 19.8 °C 8.2 °C 1008.0 hPa SW 13.4 km/h 24.5 km/h 47% 0.0 mm 883 W/m2
11:19 20.0 °C 7.7 °C 1008.0 hPa SW 7.2 km/h 21.9 km/h 45% 0.0 mm 885 W/m2
11:24 20.2 °C 7.9 °C 1008.0 hPa SW 11.1 km/h 24.5 km/h 45% 0.0 mm 888 W/m2
11:29 20.4 °C 8.1 °C 1008.0 hPa SSW 14.8 km/h 24.5 km/h 45% 0.0 mm 896 W/m2
11:34 20.1 °C 8.1 °C 1008.0 hPa South 14.8 km/h 23.3 km/h 46% 0.0 mm 896 W/m2
11:39 20.1 °C 8.4 °C 1008.0 hPa South 12.2 km/h 23.3 km/h 47% 0.0 mm 901 W/m2
11:44 20.5 °C 9.1 °C 1007.7 hPa SSW 8.7 km/h 21.9 km/h 48% 0.0 mm 907 W/m2
11:49 20.7 °C 8.3 °C 1007.7 hPa SSW 14.8 km/h 25.6 km/h 45% 0.0 mm 914 W/m2
11:54 20.6 °C 9.2 °C 1007.7 hPa SW 13.4 km/h 25.6 km/h 48% 0.0 mm 914 W/m2
11:59 21.0 °C 8.3 °C 1007.7 hPa SSW 19.5 km/h 28.0 km/h 44% 0.0 mm 916 W/m2
12:04 20.7 °C 8.0 °C 1007.7 hPa SW 14.8 km/h 28.0 km/h 44% 0.0 mm 918 W/m2
12:09 20.5 °C 8.2 °C 1007.7 hPa SW 14.8 km/h 28.0 km/h 45% 0.0 mm 919 W/m2
12:14 20.6 °C 7.9 °C 1007.7 hPa SW 15.8 km/h 25.6 km/h 44% 0.0 mm 919 W/m2
12:19 20.7 °C 8.3 °C 1007.3 hPa SW 20.9 km/h 28.0 km/h 45% 0.0 mm 922 W/m2
12:24 20.7 °C 8.3 °C 1007.7 hPa SW 12.2 km/h 28.0 km/h 45% 0.0 mm 924 W/m2
12:29 20.6 °C 7.9 °C 1007.7 hPa WSW 13.4 km/h 28.0 km/h 44% 0.0 mm 924 W/m2
12:34 20.8 °C 8.1 °C 1007.7 hPa WSW 17.2 km/h 28.0 km/h 44% 0.0 mm 926 W/m2
12:39 21.1 °C 8.1 °C 1007.3 hPa SW 18.3 km/h 23.3 km/h 43% 0.0 mm 931 W/m2
12:44 21.5 °C 8.1 °C 1007.7 hPa SW 17.2 km/h 24.5 km/h 42% 0.0 mm 933 W/m2
12:49 21.1 °C 7.7 °C 1007.3 hPa SW 17.2 km/h 27.0 km/h 42% 0.0 mm 931 W/m2
12:54 21.0 °C 8.9 °C 1007.3 hPa SSW 9.7 km/h 27.0 km/h 46% 0.0 mm 933 W/m2
12:59 21.3 °C 8.2 °C 1007.3 hPa South 13.4 km/h 24.5 km/h 43% 0.0 mm 932 W/m2
13:04 21.1 °C 8.4 °C 1007.3 hPa South 14.8 km/h 24.5 km/h 44% 0.0 mm 930 W/m2
13:09 21.1 °C 8.7 °C 1007.3 hPa South 15.8 km/h 20.9 km/h 45% 0.0 mm 930 W/m2
13:14 21.2 °C 9.8 °C 1007.3 hPa South 12.2 km/h 20.9 km/h 48% 0.0 mm 928 W/m2
13:24 21.1 °C 9.4 °C 1007.3 hPa SSW 8.7 km/h 20.9 km/h 47% 0.0 mm 924 W/m2
13:29 21.1 °C 8.4 °C 1007.3 hPa SSW 15.8 km/h 21.9 km/h 44% 0.0 mm 919 W/m2
13:34 21.2 °C 8.8 °C 1007.0 hPa SSW 8.7 km/h 21.9 km/h 45% 0.0 mm 919 W/m2
13:44 21.0 °C 9.3 °C 1007.0 hPa South 9.7 km/h 19.5 km/h 47% 0.0 mm 904 W/m2
13:49 21.3 °C 9.8 °C 1007.0 hPa South 8.7 km/h 19.5 km/h 48% 0.0 mm 888 W/m2
13:54 21.4 °C 9.0 °C 1007.0 hPa South 13.4 km/h 19.5 km/h 45% 0.0 mm 861 W/m2
14:12 21.3 °C 9.8 °C 1006.7 hPa South 11.1 km/h 21.9 km/h 48% 0.0 mm 890 W/m2
14:17 21.5 °C 10.1 °C 1006.3 hPa South 9.7 km/h 18.3 km/h 48% 0.0 mm 862 W/m2
14:22 21.1 °C 10.0 °C 1006.3 hPa South 9.7 km/h 19.5 km/h 49% 0.0 mm 869 W/m2
14:28 21.3 °C 9.8 °C 1006.3 hPa South 12.2 km/h 19.5 km/h 48% 0.0 mm 853 W/m2
14:34 21.2 °C 10.1 °C 1006.3 hPa South 9.7 km/h 17.2 km/h 49% 0.0 mm 856 W/m2
14:39 21.5 °C 9.7 °C 1006.0 hPa South 12.2 km/h 17.2 km/h 47% 0.0 mm 842 W/m2
14:44 21.5 °C 9.7 °C 1006.0 hPa South 12.2 km/h 17.2 km/h 47% 0.0 mm 833 W/m2
14:49 21.8 °C 9.7 °C 1006.0 hPa South 9.7 km/h 17.2 km/h 46% 0.0 mm 834 W/m2
14:54 21.8 °C 9.7 °C 1006.0 hPa South 9.7 km/h 18.3 km/h 46% 0.0 mm 828 W/m2
14:59 22.2 °C 9.7 °C 1006.0 hPa South 7.2 km/h 18.3 km/h 45% 0.0 mm 822 W/m2
15:09 22.4 °C 9.2 °C 1005.6 hPa South 8.7 km/h 18.3 km/h 43% 0.0 mm 807 W/m2
15:14 22.9 °C 10.0 °C 1005.6 hPa SSE 6.1 km/h 18.3 km/h 44% 0.0 mm 799 W/m2
15:24 23.0 °C 9.1 °C 1005.6 hPa South 11.1 km/h 15.8 km/h 41% 0.0 mm 748 W/m2
15:29 22.7 °C 8.8 °C 1005.6 hPa South 11.1 km/h 17.2 km/h 41% 0.0 mm 761 W/m2
15:34 22.9 °C 8.9 °C 1005.6 hPa South 7.2 km/h 17.2 km/h 41% 0.0 mm 757 W/m2
15:39 23.2 °C 8.9 °C 1005.6 hPa South 14.8 km/h 18.3 km/h 40% 0.0 mm 811 W/m2
15:44 23.0 °C 9.4 °C 1005.6 hPa SSW 9.7 km/h 18.3 km/h 42% 0.0 mm 821 W/m2
15:49 23.0 °C 8.3 °C 1005.6 hPa South 7.2 km/h 15.8 km/h 39% 0.0 mm 733 W/m2
15:54 23.3 °C 8.2 °C 1005.6 hPa South 7.2 km/h 14.8 km/h 38% 0.0 mm 762 W/m2
15:59 23.5 °C 8.4 °C 1005.3 hPa South 7.2 km/h 15.8 km/h 38% 0.0 mm 729 W/m2
16:04 23.4 °C 7.9 °C 1005.3 hPa South 6.1 km/h 15.8 km/h 37% 0.0 mm 725 W/m2
16:09 23.8 °C 7.8 °C 1005.3 hPa South 9.7 km/h 15.8 km/h 36% 0.0 mm 709 W/m2
16:14 24.0 °C 7.6 °C 1005.3 hPa South 7.2 km/h 15.8 km/h 35% 0.0 mm 686 W/m2
16:19 24.9 °C 8.0 °C 1005.3 hPa South 6.1 km/h 15.8 km/h 34% 0.0 mm 665 W/m2
16:24 24.5 °C 8.1 °C 1005.3 hPa SSE 8.7 km/h 11.1 km/h 35% 0.0 mm 652 W/m2
16:29 25.2 °C 8.7 °C 1005.0 hPa SSE 6.1 km/h 11.1 km/h 35% 0.0 mm 590 W/m2
16:34 25.5 °C 8.5 °C 1005.0 hPa SSE 3.5 km/h 9.7 km/h 34% 0.0 mm 614 W/m2
16:39 25.3 °C 7.4 °C 1005.0 hPa SSE 7.2 km/h 9.7 km/h 32% 0.0 mm 415 W/m2
16:44 24.6 °C 6.4 °C 1005.3 hPa South 8.7 km/h 11.1 km/h 31% 0.0 mm 370 W/m2
17:01 24.5 °C 8.1 °C 1005.0 hPa SSE 5.0 km/h 12.2 km/h 35% 0.0 mm 630 W/m2
17:06 25.4 °C 6.6 °C 1005.0 hPa SSE 3.5 km/h 9.7 km/h 30% 0.0 mm 567 W/m2
17:11 25.5 °C 6.7 °C 1005.0 hPa SE 2.6 km/h 11.1 km/h 30% 0.0 mm 396 W/m2
17:16 25.6 °C 5.8 °C 1004.6 hPa SSE 8.7 km/h 11.1 km/h 28% 0.0 mm 519 W/m2
17:21 25.1 °C 6.8 °C 1005.0 hPa South 7.2 km/h 12.2 km/h 31% 0.0 mm 506 W/m2
17:26 25.4 °C 8.0 °C 1004.6 hPa South 5.0 km/h 12.2 km/h 33% 0.0 mm 491 W/m2
17:31 25.2 °C 6.9 °C 1005.0 hPa SSE 5.0 km/h 11.1 km/h 31% 0.0 mm 555 W/m2
17:36 25.2 °C 8.2 °C 1004.6 hPa SSE 3.5 km/h 11.1 km/h 34% 0.0 mm 183 W/m2
17:41 23.8 °C 8.7 °C 1004.6 hPa SSE 5.0 km/h 11.1 km/h 38% 0.0 mm 173 W/m2
17:46 22.6 °C 8.7 °C 1004.6 hPa SE 3.5 km/h 9.7 km/h 41% 0.0 mm 440 W/m2
17:51 22.7 °C 10.5 °C 1004.6 hPa SE 3.5 km/h 9.7 km/h 46% 0.0 mm 465 W/m2
17:56 24.2 °C 11.2 °C 1004.6 hPa ESE 2.6 km/h 9.7 km/h 44% 0.0 mm 419 W/m2
18:01 25.1 °C 11.7 °C 1004.6 hPa SE 5.0 km/h 8.7 km/h 43% 0.0 mm 455 W/m2
18:06 25.1 °C 11.7 °C 1004.6 hPa SE 7.2 km/h 9.7 km/h 43% 0.0 mm 270 W/m2
18:11 24.4 °C 11.7 °C 1004.6 hPa SE 3.5 km/h 9.7 km/h 45% 0.0 mm 284 W/m2
18:16 24.0 °C 11.7 °C 1004.3 hPa SSE 1.1 km/h 9.7 km/h 46% 0.0 mm 400 W/m2
18:21 24.3 °C 11.9 °C 1004.6 hPa SSE 5.0 km/h 8.7 km/h 46% 0.0 mm 393 W/m2
18:26 24.7 °C 12.0 °C 1004.6 hPa SE 6.1 km/h 9.7 km/h 45% 0.0 mm 329 W/m2
18:31 23.9 °C 11.9 °C 1004.6 hPa SSE 5.0 km/h 9.7 km/h 47% 0.0 mm 129 W/m2
18:36 22.2 °C 11.0 °C 1004.6 hPa SSE 5.0 km/h 9.7 km/h 49% 0.0 mm 115 W/m2
18:41 21.5 °C 11.2 °C 1004.6 hPa SE 3.5 km/h 11.1 km/h 52% 0.0 mm 133 W/m2
18:46 21.4 °C 11.4 °C 1004.6 hPa SSE 6.1 km/h 12.2 km/h 53% 0.0 mm 130 W/m2
18:51 21.0 °C 11.6 °C 1004.6 hPa SSE 6.1 km/h 14.8 km/h 55% 0.0 mm 199 W/m2
18:56 21.0 °C 11.3 °C 1004.6 hPa SSE 5.0 km/h 14.8 km/h 54% 0.0 mm 133 W/m2
19:01 21.3 °C 10.4 °C 1004.6 hPa SE 5.0 km/h 11.1 km/h 50% 0.0 mm 113 W/m2
19:06 21.4 °C 10.8 °C 1004.6 hPa SSE 7.2 km/h 11.1 km/h 51% 0.0 mm 96 W/m2
19:11 20.8 °C 12.2 °C 1004.6 hPa SSE 2.6 km/h 11.1 km/h 58% 0.0 mm 83 W/m2
19:16 20.4 °C 12.9 °C 1004.6 hPa SSE 9.7 km/h 11.1 km/h 62% 0.0 mm 64 W/m2
19:21 20.2 °C 12.4 °C 1004.6 hPa South 2.6 km/h 11.1 km/h 61% 0.0 mm 50 W/m2
19:26 19.7 °C 11.5 °C 1005.0 hPa South 5.0 km/h 11.1 km/h 59% 0.0 mm 76 W/m2
19:31 20.1 °C 12.6 °C 1005.0 hPa South 3.5 km/h 7.2 km/h 62% 0.0 mm 67 W/m2
19:36 20.1 °C 12.8 °C 1005.0 hPa SSE 2.6 km/h 7.2 km/h 63% 0.0 mm 53 W/m2
19:42 20.4 °C 13.1 °C 1005.0 hPa Calm   5.0 km/h 63% 0.0 mm 89 W/m2
19:47 20.9 °C 13.3 °C 1005.0 hPa South 2.6 km/h 5.0 km/h 62% 0.0 mm 61 W/m2
19:52 21.1 °C 12.8 °C 1004.6 hPa Calm   5.0 km/h 59% 0.0 mm 90 W/m2
19:57 21.8 °C 12.4 °C 1004.6 hPa Calm   3.5 km/h 55% 0.0 mm 76 W/m2
20:15 20.2 °C 12.2 °C 1005.0 hPa Calm     60% 0.0 mm 31 W/m2
20:20 20.5 °C 12.2 °C 1005.0 hPa Calm     59% 0.0 mm 15 W/m2
20:25 20.1 °C 12.8 °C 1004.6 hPa Calm     63% 0.0 mm 12 W/m2
20:30 19.2 °C 12.7 °C 1005.0 hPa Calm     66% 0.0 mm 7 W/m2
20:35 18.9 °C 12.7 °C 1005.0 hPa Calm     67% 0.0 mm 4 W/m2
20:40 18.5 °C 12.5 °C 1005.0 hPa Calm     68% 0.0 mm 2 W/m2
20:45 18.2 °C 12.4 °C 1005.3 hPa Calm   2.6 km/h 69% 0.0 mm 0 W/m2
20:50 17.8 °C 12.5 °C 1005.3 hPa NW 2.6 km/h 3.5 km/h 71% 0.0 mm 0 W/m2
20:55 17.7 °C 12.6 °C 1005.3 hPa Calm   3.5 km/h 72% 0.0 mm 0 W/m2
21:00 17.5 °C 12.6 °C 1005.3 hPa NNW 1.1 km/h 5.0 km/h 73% 0.0 mm 0 W/m2
21:05 17.3 °C 12.6 °C 1005.0 hPa Calm   5.0 km/h 74% 0.0 mm 0 W/m2
21:10 17.3 °C 12.6 °C 1005.6 hPa Calm   3.5 km/h 74% 0.0 mm 0 W/m2
21:15 17.0 °C 12.3 °C 1005.6 hPa NNW 2.6 km/h 3.5 km/h 74% 0.0 mm 0 W/m2
21:20 16.9 °C 12.4 °C 1005.3 hPa NNW 3.5 km/h 6.1 km/h 75% 0.0 mm 0 W/m2
21:25 16.8 °C 12.2 °C 1005.3 hPa NNW 1.1 km/h 6.1 km/h 74% 0.0 mm 0 W/m2
21:30 16.4 °C 11.8 °C 1005.6 hPa NW 2.6 km/h 6.1 km/h 74% 0.0 mm 0 W/m2
21:35 16.6 °C 11.9 °C 1005.3 hPa NNW 2.6 km/h 6.1 km/h 74% 0.0 mm 0 W/m2
21:40 16.5 °C 11.7 °C 1005.6 hPa North 3.5 km/h 6.1 km/h 73% 0.0 mm 0 W/m2
21:45 16.5 °C 11.7 °C 1005.6 hPa North 2.6 km/h 6.1 km/h 73% 0.0 mm 0 W/m2
21:50 16.6 °C 11.7 °C 1005.6 hPa NNW 3.5 km/h 6.1 km/h 73% 0.0 mm 0 W/m2
21:55 16.4 °C 11.6 °C 1005.6 hPa North 3.5 km/h 7.2 km/h 73% 0.0 mm 0 W/m2
22:00 16.3 °C 11.3 °C 1005.6 hPa NNW 7.2 km/h 9.7 km/h 72% 0.0 mm 0 W/m2
22:01 16.3 °C 11.3 °C 1005.6 hPa NNW 5.0 km/h 9.7 km/h 72% 0.0 mm 0 W/m2
22:06 16.4 °C 11.1 °C 1005.6 hPa NW 5.0 km/h 9.7 km/h 71% 0.0 mm 0 W/m2
22:11 16.4 °C 11.1 °C 1005.6 hPa NW 2.6 km/h 8.7 km/h 71% 0.0 mm 0 W/m2
22:16 16.2 °C 10.9 °C 1005.6 hPa NNW 1.1 km/h 7.2 km/h 71% 0.0 mm 0 W/m2
22:21 16.1 °C 11.1 °C 1005.6 hPa NNW 2.6 km/h 5.0 km/h 72% 0.0 mm 0 W/m2
22:26 16.1 °C 11.1 °C 1005.6 hPa North 2.6 km/h 5.0 km/h 72% 0.0 mm 0 W/m2
22:31 16.0 °C 10.9 °C 1005.6 hPa Calm   5.0 km/h 72% 0.0 mm 0 W/m2
22:36 15.8 °C 11.0 °C 1005.6 hPa Calm   3.5 km/h 73% 0.0 mm 0 W/m2
22:41 15.7 °C 10.9 °C 1005.6 hPa Calm   2.6 km/h 73% 0.0 mm 0 W/m2
22:46 15.7 °C 11.1 °C 1005.6 hPa NW 1.1 km/h 5.0 km/h 74% 0.0 mm 0 W/m2
22:51 15.7 °C 11.1 °C 1005.6 hPa NNW 5.0 km/h 7.2 km/h 74% 0.0 mm 0 W/m2
22:56 15.7 °C 10.9 °C 1005.6 hPa NNW 5.0 km/h 7.2 km/h 73% 0.0 mm 0 W/m2
23:01 15.8 °C 10.6 °C 1005.6 hPa NNW 6.1 km/h 8.7 km/h 71% 0.0 mm 0 W/m2
23:06 16.0 °C 10.1 °C 1006.0 hPa NW 3.5 km/h 8.7 km/h 68% 0.0 mm 0 W/m2
23:11 16.0 °C 9.9 °C 1005.6 hPa NW 5.0 km/h 7.2 km/h 67% 0.0 mm 0 W/m2
23:16 15.9 °C 10.0 °C 1005.6 hPa NW 5.0 km/h 9.7 km/h 68% 0.0 mm 0 W/m2
23:21 15.9 °C 9.8 °C 1005.6 hPa NW 2.6 km/h 9.7 km/h 67% 0.0 mm 0 W/m2
23:26 15.9 °C 9.8 °C 1005.6 hPa NW 5.0 km/h 7.2 km/h 67% 0.0 mm 0 W/m2
23:31 16.1 °C 9.5 °C 1005.6 hPa NW 5.0 km/h 8.7 km/h 65% 0.0 mm 0 W/m2
23:36 16.2 °C 9.4 °C 1005.6 hPa NW 5.0 km/h 8.7 km/h 64% 0.0 mm 0 W/m2
23:42 16.3 °C 9.5 °C 1005.6 hPa NW 6.1 km/h 11.1 km/h 64% 0.0 mm 0 W/m2
23:52 16.3 °C 9.3 °C 1005.3 hPa NW 2.6 km/h 9.7 km/h 63% 0.0 mm 0 W/m2
23:57 16.2 °C 9.4 °C 1005.6 hPa NW 1.1 km/h 7.2 km/h 64% 0.0 mm 0 W/m2
Northern Hawkes Bay. New Zealand Historic Data
Compliments of Weather Underground - 2 mb